Time;durP1;ratioP1;P1;durP2;ratioP2;P2;SDS_P1;SDS_P2;PMS_P1;PMS_P2;Temp;Humidity;BMP_temperature;BMP_pressure;BME280_temperature;BME280_humidity;BME280_pressure;Samples;Min_cycle;Max_cycle;Signal;HPM_P1;HPM_P2
2022/04/25 00:00:22;;;;;;;2.58;1.90;;;;;;;18.42;44.44;99941.22;1772621;80;20916;-92
2022/04/25 00:02:50;;;;;;;2.75;2.08;;;;;;;18.43;44.44;99941.47;1772813;80;20964;-92
2022/04/25 00:05:16;;;;;;;2.87;2.08;;;;;;;18.43;44.43;99940.09;1772262;81;21202;-92
2022/04/25 00:07:42;;;;;;;2.92;2.00;;;;;;;18.41;44.44;99941.00;1772851;80;20889;-92
2022/04/25 00:10:09;;;;;;;4.15;2.12;;;;;;;18.42;44.45;99940.66;1772877;80;21083;-92
2022/04/25 00:12:35;;;;;;;2.60;2.00;;;;;;;18.41;44.44;99933.55;1772247;80;21358;-92
2022/04/25 00:15:07;;;;;;;2.58;1.98;;;;;;;18.42;44.43;99938.47;1772905;80;20963;-92
2022/04/25 00:17:33;;;;;;;2.17;1.70;;;;;;;18.42;44.46;99935.71;1772715;80;20941;-91
2022/04/25 00:19:59;;;;;;;2.75;2.05;;;;;;;18.42;44.45;99938.47;1775632;80;20885;-92
2022/04/25 00:22:25;;;;;;;3.00;2.30;;;;;;;18.41;44.45;99926.66;1775791;80;21287;-92
2022/04/25 00:24:51;;;;;;;4.53;1.95;;;;;;;18.41;44.42;99928.05;1775922;80;20932;-92
2022/04/25 00:27:17;;;;;;;2.17;1.80;;;;;;;18.41;44.44;99921.72;1775399;80;21354;-92
2022/04/25 00:29:43;;;;;;;2.77;1.92;;;;;;;18.42;44.43;99923.32;1775650;80;20928;-92
2022/04/25 00:32:09;;;;;;;2.58;1.82;;;;;;;18.41;44.44;99929.98;1775942;80;20917;-92
2022/04/25 00:34:36;;;;;;;2.80;2.00;;;;;;;18.41;44.44;99927.23;1775415;80;21179;-92
2022/04/25 00:37:03;;;;;;;3.60;2.00;;;;;;;18.42;44.43;99921.94;1775704;80;20861;-92
2022/04/25 00:39:29;;;;;;;2.42;1.92;;;;;;;18.42;44.43;99920.56;1775983;80;20882;-92
2022/04/25 00:41:58;;;;;;;4.87;2.58;;;;;;;18.41;44.43;99916.22;1775284;80;21362;-92
2022/04/25 00:44:24;;;;;;;2.70;1.85;;;;;;;18.41;44.44;99917.03;1775814;80;21013;-92
2022/04/25 00:46:53;;;;;;;3.42;1.90;;;;;;;18.42;44.42;99921.94;1775462;80;21251;-92
2022/04/25 00:49:19;;;;;;;2.92;2.00;;;;;;;18.41;44.43;99913.46;1769150;80;21416;-92
2022/04/25 00:51:46;;;;;;;2.55;1.90;;;;;;;18.41;44.43;99912.90;1775720;80;20885;-92
2022/04/25 00:54:13;;;;;;;2.77;1.92;;;;;;;18.41;44.44;99907.39;1775923;80;20995;-92
2022/04/25 00:56:39;;;;;;;3.10;2.30;;;;;;;18.42;44.43;99909.55;1775547;80;20975;-92
2022/04/25 00:59:06;;;;;;;4.15;2.17;;;;;;;18.42;44.42;99912.30;1775566;80;21813;-92
2022/04/25 01:01:34;;;;;;;2.58;1.90;;;;;;;18.41;44.43;99910.14;1776008;80;20929;-92
2022/04/25 01:04:06;;;;;;;3.12;2.08;;;;;;;18.41;44.43;99916.22;1747650;80;20937;-92
2022/04/25 01:06:32;;;;;;;3.00;1.80;;;;;;;18.41;44.42;99912.08;1775523;80;21299;-92
2022/04/25 01:08:58;;;;;;;4.70;2.02;;;;;;;18.41;44.44;99906.02;1776005;80;20920;-92
2022/04/25 01:11:24;;;;;;;2.17;1.98;;;;;;;18.41;44.43;99900.50;1775554;80;21265;-92
2022/04/25 01:13:50;;;;;;;2.60;2.00;;;;;;;18.41;44.43;99903.26;1775631;80;20928;-92
2022/04/25 01:16:16;;;;;;;3.15;1.82;;;;;;;18.40;44.44;99891.99;1775941;80;20951;-92
2022/04/25 01:18:43;;;;;;;2.67;1.92;;;;;;;18.41;44.43;99904.63;1776258;80;21458;-92
2022/04/25 01:21:11;;;;;;;3.77;2.30;;;;;;;18.40;44.43;99898.88;1778107;80;21649;-92
2022/04/25 01:29:06;;;;;;;3.42;1.98;;;;;;;18.39;44.43;99890.36;1747335;81;20936;-92
2022/04/25 01:31:32;;;;;;;3.35;2.00;;;;;;;18.40;44.42;99892.55;1772833;80;20924;-92
2022/04/25 01:33:58;;;;;;;3.17;2.12;;;;;;;18.39;44.44;99894.50;1778081;80;21373;-92
2022/04/25 01:36:24;;;;;;;2.52;1.80;;;;;;;18.38;44.44;99890.11;1777873;80;21256;-92
2022/04/25 01:38:52;;;;;;;4.22;2.20;;;;;;;18.39;44.43;99888.98;1777855;80;20888;-92
2022/04/25 01:41:18;;;;;;;3.25;2.15;;;;;;;18.39;44.44;99878.53;1777573;80;20992;-92
2022/04/25 01:43:45;;;;;;;2.62;1.75;;;;;;;18.39;44.45;99873.03;1778079;80;21651;-92
2022/04/25 01:46:11;;;;;;;3.55;1.90;;;;;;;18.39;44.45;99874.41;1778015;80;20960;-92
2022/04/25 01:48:37;;;;;;;2.95;1.90;;;;;;;18.39;44.46;99868.90;1778196;80;21401;-92
2022/04/25 01:51:03;;;;;;;2.45;1.70;;;;;;;18.38;44.44;99864.52;1777864;80;20869;-92
2022/04/25 01:53:32;;;;;;;2.37;1.85;;;;;;;18.39;44.46;99860.64;1777876;80;20952;-92
2022/04/25 01:55:58;;;;;;;2.67;2.10;;;;;;;18.38;44.45;99857.07;1778138;80;21297;-92
2022/04/25 01:58:25;;;;;;;2.40;1.70;;;;;;;18.39;44.45;99855.13;1778438;80;20862;-92
2022/04/25 02:00:51;;;;;;;3.62;1.90;;;;;;;18.38;44.44;99849.37;1777634;80;21716;-92
2022/04/25 02:03:17;;;;;;;2.25;2.05;;;;;;;18.39;44.45;99847.68;1774628;80;20921;-92
2022/04/25 02:05:43;;;;;;;2.70;1.87;;;;;;;18.38;44.42;99845.23;1778129;80;20922;-92
2022/04/25 02:08:09;;;;;;;2.00;1.80;;;;;;;18.39;44.44;99839.98;1777624;80;21023;-92
2022/04/25 02:10:36;;;;;;;2.70;1.80;;;;;;;18.39;44.44;99844.92;1778100;79;20935;-92
2022/04/25 02:13:02;;;;;;;3.72;2.22;;;;;;;18.38;44.44;99836.41;1778014;80;21061;-92
2022/04/25 02:15:28;;;;;;;2.47;1.80;;;;;;;18.39;44.45;99837.23;1777722;80;20956;-92
2022/04/25 02:17:54;;;;;;;3.45;1.90;;;;;;;18.38;44.44;99833.66;1778037;80;21370;-92
2022/04/25 02:20:20;;;;;;;1.95;1.60;;;;;;;18.40;44.44;99837.48;1775770;80;20909;-92
2022/04/25 02:22:47;;;;;;;4.25;2.00;;;;;;;18.38;44.44;99838.36;1776072;80;21075;-92
2022/04/25 02:25:13;;;;;;;2.40;1.85;;;;;;;18.39;44.44;99849.05;1775912;80;21082;-92
2022/04/25 02:27:39;;;;;;;2.77;1.98;;;;;;;18.39;44.41;99848.24;1775791;80;21472;-92
2022/04/25 02:30:12;;;;;;;2.65;2.05;;;;;;;18.40;44.42;99856.19;1775326;80;20940;-92
2022/04/25 02:32:38;;;;;;;2.83;1.80;;;;;;;18.39;44.40;99860.07;1769259;80;20984;-92
2022/04/25 02:35:05;;;;;;;4.05;2.00;;;;;;;18.39;44.41;99860.07;1775780;80;20937;-92
2022/04/25 02:37:31;;;;;;;2.87;2.02;;;;;;;18.39;44.41;99855.13;1775338;80;21107;-92
2022/04/25 02:39:58;;;;;;;3.52;2.12;;;;;;;18.38;44.40;99854.88;1775652;80;20865;-92
2022/04/25 02:42:25;;;;;;;2.10;1.70;;;;;;;18.40;44.38;99860.89;1776110;80;20861;-92
2022/04/25 02:44:57;;;;;;;2.30;1.50;;;;;;;18.39;44.39;99856.50;1747877;80;20885;-92
2022/04/25 02:47:23;;;;;;;3.02;1.70;;;;;;;18.40;44.39;99859.51;1775894;80;20925;-92
2022/04/25 02:49:49;;;;;;;2.87;2.20;;;;;;;18.38;44.39;99862.58;1775951;80;21302;-92
2022/04/25 02:52:15;;;;;;;3.00;2.30;;;;;;;18.38;44.40;99863.95;1775145;80;20885;-92
2022/04/25 02:54:41;;;;;;;4.17;2.05;;;;;;;18.38;44.40;99869.46;1775782;80;20941;-92
2022/04/25 02:57:07;;;;;;;3.08;1.90;;;;;;;18.38;44.39;99874.97;1775596;80;20959;-92
2022/04/25 02:59:33;;;;;;;3.50;1.70;;;;;;;18.40;44.38;99882.91;1775661;80;20898;-92
2022/04/25 03:01:59;;;;;;;2.92;2.08;;;;;;;18.38;44.39;99873.59;1775738;80;21253;-92
2022/04/25 03:04:25;;;;;;;3.92;1.87;;;;;;;18.39;44.39;99888.17;1775924;80;20862;-92
2022/04/25 03:06:51;;;;;;;3.27;2.10;;;;;;;18.38;44.39;99885.98;1775361;80;20956;-91
2022/04/25 03:09:18;;;;;;;2.70;2.22;;;;;;;18.39;44.37;99876.59;1775667;80;21390;-92
2022/04/25 03:11:44;;;;;;;3.22;1.80;;;;;;;18.40;44.38;99862.27;1775944;80;20887;-92
2022/04/25 03:14:10;;;;;;;3.20;2.10;;;;;;;18.38;44.38;99858.45;1775211;80;21225;-92
2022/04/25 03:16:37;;;;;;;3.67;2.20;;;;;;;18.39;44.36;99860.07;1775842;80;20948;-91
2022/04/25 03:19:03;;;;;;;3.92;2.30;;;;;;;18.38;44.37;99881.04;1776096;80;20940;-92
2022/04/25 03:21:29;;;;;;;4.85;2.33;;;;;;;18.39;44.37;99879.91;1777678;80;20842;-92
2022/04/25 03:23:56;;;;;;;3.42;2.10;;;;;;;18.38;44.37;99872.22;1777826;80;21358;-92
2022/04/25 03:26:22;;;;;;;4.08;2.50;;;;;;;18.38;44.38;99872.78;1778042;80;21197;-92
2022/04/25 03:28:48;;;;;;;3.10;1.92;;;;;;;18.38;44.37;99863.95;1777523;80;20936;-92
2022/04/25 03:31:14;;;;;;;3.67;2.30;;;;;;;18.40;44.36;99865.02;1778105;80;21389;-92
2022/04/25 03:33:40;;;;;;;3.33;2.20;;;;;;;18.40;44.37;99870.52;1777821;80;20854;-92
2022/04/25 03:36:07;;;;;;;2.47;2.10;;;;;;;18.40;44.36;99899.44;1777741;80;20924;-92
2022/04/25 03:38:32;;;;;;;3.50;2.45;;;;;;;18.40;44.36;99898.06;1778102;80;21092;-92
2022/04/25 03:40:59;;;;;;;3.30;1.98;;;;;;;18.39;44.34;99884.86;1777737;79;20932;-93
2022/04/25 03:43:25;;;;;;;2.87;2.10;;;;;;;18.40;44.35;99867.77;1777899;80;20983;-92
2022/04/25 03:45:51;;;;;;;2.70;2.35;;;;;;;18.38;44.36;99863.95;1778060;80;20833;-92
2022/04/25 03:48:18;;;;;;;3.90;2.10;;;;;;;18.39;44.34;99873.84;1778045;79;20907;-92
2022/04/25 03:50:44;;;;;;;2.77;2.08;;;;;;;18.40;44.35;99882.91;1777679;80;21067;-92
2022/04/25 03:53:11;;;;;;;2.92;1.90;;;;;;;18.38;44.34;99868.08;1777910;80;20861;-93
2022/04/25 03:58:22;;;;;;;4.97;2.20;;;;;;;18.40;44.35;99863.64;1777547;80;21349;-92
2022/04/25 04:00:48;;;;;;;2.30;2.00;;;;;;;18.39;44.32;99872.47;1777992;80;20937;-92
2022/04/25 04:03:17;;;;;;;4.22;2.22;;;;;;;18.40;44.33;99888.42;1777814;80;21241;-92
2022/04/25 04:05:42;;;;;;;3.90;2.30;;;;;;;18.39;44.33;99875.78;1777551;80;20885;-92
2022/04/25 04:08:09;;;;;;;3.67;2.30;;;;;;;18.38;44.34;99884.61;1778091;80;21326;-92
2022/04/25 04:10:36;;;;;;;3.90;2.27;;;;;;;18.39;44.34;99882.66;1777715;80;20924;-92
2022/04/25 04:13:02;;;;;;;2.50;2.25;;;;;;;18.39;44.34;99882.66;1777785;80;20964;-92
2022/04/25 04:15:28;;;;;;;2.62;2.10;;;;;;;18.38;44.34;99879.09;1777911;80;21718;-92
2022/04/25 04:17:54;;;;;;;3.42;2.15;;;;;;;18.38;44.36;99883.23;1777924;80;20818;-92
2022/04/25 04:20:20;;;;;;;3.25;2.27;;;;;;;18.38;44.34;99876.34;1773919;80;20948;-92
2022/04/25 04:22:46;;;;;;;2.67;2.25;;;;;;;18.38;44.34;99872.78;1772883;80;20934;-92
2022/04/25 04:25:14;;;;;;;3.05;2.02;;;;;;;18.38;44.34;99872.78;1772815;80;20956;-93
2022/04/25 04:27:41;;;;;;;4.87;2.05;;;;;;;18.38;44.36;99879.09;1772223;80;21290;-92
2022/04/25 04:30:10;;;;;;;4.35;2.30;;;;;;;18.38;44.34;99870.02;1772831;80;20917;-92
2022/04/25 04:32:38;;;;;;;2.92;2.42;;;;;;;18.39;44.33;99877.97;1773014;80;20925;-92
2022/04/25 04:35:08;;;;;;;4.12;2.20;;;;;;;18.38;44.33;99872.78;1772400;80;20897;-92
2022/04/25 04:37:35;;;;;;;3.15;2.15;;;;;;;18.39;44.34;99874.41;1758567;81;20940;-92
2022/04/25 04:42:46;;;;;;;4.08;2.30;;;;;;;18.39;44.34;99874.41;1761246;79;20937;-92
2022/04/25 04:45:12;;;;;;;3.08;2.20;;;;;;;18.38;44.32;99874.97;1773057;80;21454;-92
2022/04/25 04:47:39;;;;;;;2.62;2.33;;;;;;;18.38;44.33;99875.53;1759661;81;20956;-92
2022/04/25 04:50:10;;;;;;;3.98;2.27;;;;;;;18.38;44.33;99883.80;1772469;80;20932;-92
2022/04/25 04:52:36;;;;;;;4.12;2.12;;;;;;;18.40;44.32;99891.18;1773017;80;21608;-92
2022/04/25 04:55:03;;;;;;;2.98;2.20;;;;;;;18.38;44.33;99886.55;1772659;81;20913;-92
2022/04/25 04:57:29;;;;;;;2.90;2.12;;;;;;;18.40;44.32;99885.67;1772674;80;20952;-92
2022/04/25 04:59:55;;;;;;;2.75;2.15;;;;;;;18.38;44.32;99879.09;1753623;81;20936;-92
2022/04/25 05:02:21;;;;;;;3.30;2.33;;;;;;;18.39;44.32;99872.47;1772789;80;20901;-92
2022/04/25 05:04:49;;;;;;;2.98;2.33;;;;;;;18.39;44.34;99877.97;1772544;80;21885;-92
2022/04/25 05:07:15;;;;;;;3.15;2.22;;;;;;;18.39;44.32;99873.84;1772613;80;20909;-92
2022/04/25 05:09:41;;;;;;;2.40;1.98;;;;;;;18.40;44.33;99877.41;1772662;81;20933;-92
2022/04/25 05:12:09;;;;;;;2.80;2.10;;;;;;;18.40;44.35;99890.61;1772366;80;21004;-92
2022/04/25 05:14:35;;;;;;;4.08;2.12;;;;;;;18.40;44.31;99887.86;1772881;80;20818;-92
2022/04/25 05:17:01;;;;;;;2.83;2.37;;;;;;;18.41;44.31;99902.45;1772856;80;21125;-92
2022/04/25 05:19:27;;;;;;;2.87;2.20;;;;;;;18.40;44.31;99908.52;1773034;80;20975;-92
2022/04/25 05:21:53;;;;;;;2.60;2.30;;;;;;;18.41;44.32;99907.95;1775918;80;20881;-92
2022/04/25 05:24:19;;;;;;;2.70;2.15;;;;;;;18.40;44.31;99897.50;1775716;80;20951;-92
2022/04/25 05:26:45;;;;;;;5.45;2.55;;;;;;;18.41;44.31;99878.47;1775453;80;20948;-92
2022/04/25 05:29:13;;;;;;;3.47;1.85;;;;;;;18.42;44.32;99876.50;1775887;80;21100;-92
2022/04/25 05:31:39;;;;;;;3.42;2.15;;;;;;;18.42;44.31;99877.88;1775622;80;20991;-92
2022/04/25 05:34:05;;;;;;;3.92;2.30;;;;;;;18.42;44.32;99873.75;1775585;80;20900;-92
2022/04/25 05:36:30;;;;;;;5.10;2.20;;;;;;;18.42;44.32;99880.63;1775683;80;21332;-92
2022/04/25 05:38:57;;;;;;;2.37;1.92;;;;;;;18.42;44.33;99892.46;1775678;80;20904;-92
2022/04/25 05:41:23;;;;;;;3.70;2.50;;;;;;;18.42;44.32;99899.91;1775702;80;21041;-92
2022/04/25 05:43:49;;;;;;;2.72;2.05;;;;;;;18.42;44.33;99910.36;1776012;80;20929;-92
2022/04/25 05:46:15;;;;;;;2.52;2.22;;;;;;;18.43;44.34;99921.62;1776037;80;21405;-92
2022/04/25 05:54:12;;;;;;;2.65;2.12;;;;;;;18.43;44.33;99940.91;1744954;81;21079;-92
2022/04/25 05:56:39;;;;;;;4.22;2.58;;;;;;;18.43;44.31;99959.38;1773758;80;20968;-92
2022/04/25 05:59:05;;;;;;;2.95;2.22;;;;;;;18.43;44.31;99963.50;1775874;80;20956;-92
2022/04/25 06:01:31;;;;;;;3.30;2.33;;;;;;;18.43;44.33;99969.02;1775445;80;20877;-92
2022/04/25 06:03:57;;;;;;;2.45;1.92;;;;;;;18.44;44.32;99960.44;1775977;80;21016;-92
2022/04/25 06:06:26;;;;;;;3.27;2.50;;;;;;;18.44;44.33;99959.06;1775746;80;21009;-92
2022/04/25 06:08:51;;;;;;;2.98;2.15;;;;;;;18.44;44.33;99952.73;1775511;80;20924;-92
2022/04/25 06:11:18;;;;;;;3.37;2.40;;;;;;;18.44;44.34;99946.66;1776056;80;20964;-92
2022/04/25 06:13:50;;;;;;;2.77;2.15;;;;;;;18.45;44.32;99947.48;1742032;80;21036;-92
2022/04/25 06:16:17;;;;;;;2.83;2.17;;;;;;;18.44;44.32;99945.29;1775384;80;20937;-92
2022/04/25 06:18:43;;;;;;;2.58;2.02;;;;;;;18.45;44.32;99944.16;1775915;80;21751;-92
2022/04/25 06:21:09;;;;;;;3.20;1.90;;;;;;;18.46;44.32;99943.60;1776967;80;20960;-92
2022/04/25 06:23:35;;;;;;;2.90;2.33;;;;;;;18.45;44.33;99940.59;1777866;80;20877;-92
2022/04/25 06:26:01;;;;;;;4.10;2.35;;;;;;;18.46;44.33;99938.09;1778153;80;20829;-92
2022/04/25 06:28:29;;;;;;;2.85;2.55;;;;;;;18.46;44.32;99936.12;1778068;80;20992;-92
2022/04/25 06:30:55;;;;;;;5.60;2.30;;;;;;;18.46;44.32;99925.70;1777825;80;21007;-92
2022/04/25 06:33:21;;;;;;;3.95;2.60;;;;;;;18.47;44.31;99930.05;1777785;80;21418;-92
2022/04/25 06:35:49;;;;;;;3.50;2.12;;;;;;;18.47;44.31;99932.80;1778033;80;20976;-92
2022/04/25 06:38:15;;;;;;;3.50;2.27;;;;;;;18.48;44.31;99918.72;1777592;80;21327;-92
2022/04/25 06:40:42;;;;;;;3.25;2.42;;;;;;;18.49;44.27;99920.91;1778018;80;20940;-93
2022/04/25 06:43:09;;;;;;;2.50;1.90;;;;;;;18.48;44.28;99909.64;1777812;79;21815;-92
2022/04/25 06:45:35;;;;;;;3.75;2.12;;;;;;;18.49;44.31;99911.27;1758295;80;20825;-92
2022/04/25 06:48:01;;;;;;;2.25;1.90;;;;;;;18.49;44.30;99909.89;1777892;80;21244;-92
2022/04/25 06:50:27;;;;;;;2.20;2.00;;;;;;;18.49;44.27;99912.64;1777752;80;20865;-92
2022/04/25 06:52:53;;;;;;;4.03;2.25;;;;;;;18.49;44.27;99909.33;1777481;80;20929;-92
2022/04/25 06:55:19;;;;;;;2.20;1.95;;;;;;;18.50;44.29;99903.25;1778016;80;21041;-92
2022/04/25 06:57:47;;;;;;;3.27;2.22;;;;;;;18.49;44.29;99901.63;1777719;79;21337;-92
2022/04/25 07:00:17;;;;;;;2.85;2.22;;;;;;;18.50;44.30;99899.12;1753900;80;21393;-92
2022/04/25 07:02:43;;;;;;;3.05;2.25;;;;;;;18.50;44.26;99899.91;1777811;80;20894;-92
2022/04/25 07:05:09;;;;;;;2.60;1.92;;;;;;;18.50;44.29;99897.15;1777987;80;20933;-92
2022/04/25 07:07:42;;;;;;;3.22;2.20;;;;;;;18.51;44.27;99896.59;1777818;80;20999;-92
2022/04/25 07:10:09;;;;;;;2.62;2.17;;;;;;;18.51;44.26;99900.72;1777733;80;21373;-92
2022/04/25 07:12:35;;;;;;;2.90;2.02;;;;;;;18.50;44.26;99904.63;1777980;80;20929;-92
2022/04/25 07:15:01;;;;;;;3.05;1.92;;;;;;;18.51;44.25;99915.30;1777653;80;20956;-92
2022/04/25 07:17:28;;;;;;;2.90;2.33;;;;;;;18.52;44.26;99916.12;1777794;79;21411;-92
2022/04/25 07:19:54;;;;;;;2.67;2.10;;;;;;;18.52;44.25;99920.25;1777329;80;21241;-92
2022/04/25 07:30:35;;;;;;;4.35;2.30;;;;;;;18.52;44.26;99921.62;1764601;81;21648;-92
2022/04/25 07:33:02;;;;;;;3.52;2.10;;;;;;;18.52;44.26;99921.62;1772355;80;21203;-92
2022/04/25 07:35:28;;;;;;;2.50;2.10;;;;;;;18.53;44.24;99927.42;1772897;80;20976;-91
2022/04/25 07:37:57;;;;;;;3.65;2.45;;;;;;;18.52;44.24;99920.25;1772960;80;20842;-92
2022/04/25 07:40:24;;;;;;;6.22;2.40;;;;;;;18.52;44.25;99914.74;1772228;81;38049;-92
2022/04/25 07:42:50;;;;;;;3.77;2.02;;;;;;;18.53;44.24;99909.52;1772198;80;20949;-92
2022/04/25 07:45:16;;;;;;;2.77;2.00;;;;;;;18.53;44.25;99904.00;1773367;80;21230;-92
2022/04/25 07:47:43;;;;;;;3.52;1.90;;;;;;;18.54;44.25;99907.01;1772284;80;20956;-92
2022/04/25 07:50:13;;;;;;;2.52;2.00;;;;;;;18.54;44.25;99905.03;1772738;80;21338;-92
2022/04/25 07:52:39;;;;;;;2.05;1.70;;;;;;;18.54;44.28;99899.53;1772980;80;20865;-92
2022/04/25 07:55:09;;;;;;;2.83;2.00;;;;;;;18.54;44.28;99897.37;1772212;80;21411;-92
2022/04/25 07:57:35;;;;;;;2.87;2.20;;;;;;;18.55;44.28;99894.83;1770185;81;21107;-92
2022/04/25 08:00:04;;;;;;;2.45;1.90;;;;;;;18.54;44.27;99898.15;1772654;80;20967;-92
2022/04/25 08:02:30;;;;;;;3.42;2.10;;;;;;;18.55;44.29;99895.64;1771964;80;20882;-92
2022/04/25 08:04:56;;;;;;;3.55;2.00;;;;;;;18.55;44.29;99892.08;1772473;80;20948;-92
2022/04/25 08:07:23;;;;;;;2.80;1.95;;;;;;;18.56;44.29;99890.39;1772787;80;21276;-92
2022/04/25 08:09:49;;;;;;;3.50;2.33;;;;;;;18.56;44.30;99896.46;1772247;80;20979;-91
2022/04/25 08:17:59;;;;;;;3.37;2.00;;;;;;;18.57;44.32;99893.39;1742178;81;21348;-92
2022/04/25 08:20:25;;;;;;;2.12;1.70;;;;;;;18.57;44.33;99899.47;1747719;81;20960;-91
2022/04/25 08:22:51;;;;;;;4.40;1.85;;;;;;;18.58;44.34;99902.47;1772722;80;21290;-92
2022/04/25 08:25:18;;;;;;;4.58;2.00;;;;;;;18.58;44.35;99895.58;1772692;81;20936;-92
2022/04/25 08:27:50;;;;;;;2.83;1.67;;;;;;;18.57;44.38;99892.02;1772395;80;21409;-92
2022/04/25 08:30:17;;;;;;;3.27;1.80;;;;;;;18.58;44.39;99895.58;1772853;80;20936;-92
2022/04/25 08:32:46;;;;;;;2.90;1.98;;;;;;;18.58;44.40;99891.45;1772655;79;21367;-92
2022/04/25 08:35:13;;;;;;;3.08;1.87;;;;;;;18.58;44.41;99892.83;1772209;80;21866;-92
2022/04/25 08:37:41;;;;;;;3.33;2.20;;;;;;;18.59;44.43;99891.10;1772661;80;20858;-92
2022/04/25 08:40:08;;;;;;;3.08;1.70;;;;;;;18.58;44.43;99888.13;1772509;80;20916;-92
2022/04/25 08:42:35;;;;;;;3.30;2.00;;;;;;;18.59;44.42;99884.22;1772337;80;20873;-92
2022/04/25 08:45:03;;;;;;;2.75;1.85;;;;;;;18.59;44.45;99881.46;1753472;81;21393;-92
2022/04/25 08:47:30;;;;;;;2.90;2.12;;;;;;;18.59;44.45;99877.33;1772515;80;21175;-92
2022/04/25 08:49:58;;;;;;;2.47;1.85;;;;;;;18.60;44.47;99869.88;1772437;80;20893;-92
2022/04/25 08:52:26;;;;;;;2.60;2.02;;;;;;;18.61;44.48;99869.56;1772442;80;20870;-92
2022/04/25 08:55:03;;;;;;;2.50;1.98;;;;;;;18.61;44.51;99871.50;1772611;80;21275;-92
2022/04/25 08:57:30;;;;;;;2.70;1.98;;;;;;;18.61;44.52;99869.56;1772461;79;20917;-92
2022/04/25 08:59:57;;;;;;;2.30;1.87;;;;;;;18.61;44.51;99866.81;1772479;80;21113;-92
2022/04/25 09:02:23;;;;;;;2.02;1.60;;;;;;;18.62;44.53;99866.25;1772612;81;20862;-92
2022/04/25 09:04:50;;;;;;;3.15;1.85;;;;;;;18.61;44.54;99868.19;1753148;81;20956;-92
2022/04/25 09:07:17;;;;;;;3.05;1.72;;;;;;;18.62;44.56;99871.75;1772592;80;20940;-92
2022/04/25 09:09:43;;;;;;;2.58;1.92;;;;;;;18.63;44.58;99882.99;1772561;80;21286;-92
2022/04/25 09:12:11;;;;;;;2.87;1.90;;;;;;;18.62;44.59;99878.64;1772426;80;21333;-92
2022/04/25 09:14:39;;;;;;;2.33;1.77;;;;;;;18.63;44.61;99878.86;1772475;80;20877;-92
2022/04/25 09:17:06;;;;;;;2.42;2.10;;;;;;;18.64;44.64;99873.59;1772988;80;20838;-91
2022/04/25 09:19:33;;;;;;;2.02;1.72;;;;;;;18.64;44.64;99869.47;1772580;80;20968;-92
2022/04/25 09:21:59;;;;;;;2.58;1.77;;;;;;;18.63;44.65;99871.41;1776410;80;20925;-91
2022/04/25 09:24:34;;;;;;;2.75;1.80;;;;;;;18.63;44.66;99874.16;1758519;80;21129;-92
2022/04/25 09:27:22;;;;;;;2.83;1.70;;;;;;;18.64;44.68;99874.97;1777749;80;20952;-92
2022/04/25 09:29:48;;;;;;;2.17;1.82;;;;;;;18.65;44.70;99872.47;1777843;80;20877;-92
2022/04/25 09:32:16;;;;;;;2.20;1.90;;;;;;;18.64;44.70;99876.35;1777566;79;20877;-92
2022/04/25 09:35:00;;;;;;;2.45;1.80;;;;;;;18.64;44.72;99879.92;1756392;80;21381;-92
2022/04/25 09:37:45;;;;;;;2.70;1.90;;;;;;;18.64;44.74;99874.97;1777690;80;21151;-92
2022/04/25 09:40:11;;;;;;;4.30;2.05;;;;;;;18.64;44.75;99873.59;1764695;80;20885;-92
2022/04/25 09:42:44;;;;;;;2.00;1.80;;;;;;;18.64;44.78;99869.47;1777464;80;20967;-92
2022/04/25 09:45:10;;;;;;;2.67;1.90;;;;;;;18.64;44.78;99861.20;1778190;80;20924;-92
2022/04/25 09:47:37;;;;;;;4.22;1.87;;;;;;;18.64;44.79;99862.02;1777861;80;20996;-92
2022/04/25 09:50:11;;;;;;;1.85;1.60;;;;;;;18.64;44.79;99862.58;1777855;80;21187;-92
2022/04/25 09:52:57;;;;;;;3.77;2.00;;;;;;;18.64;44.80;99864.77;1777813;80;20979;-92
2022/04/25 09:55:26;;;;;;;3.20;1.75;;;;;;;18.64;44.82;99860.64;1773227;80;20893;-92
2022/04/25 09:57:53;;;;;;;4.53;1.75;;;;;;;18.65;44.80;99855.94;1777626;80;20853;-92
2022/04/25 10:00:33;;;;;;;2.92;1.92;;;;;;;18.65;44.81;99853.19;1777980;80;20995;-92
2022/04/25 10:03:01;;;;;;;2.80;1.82;;;;;;;18.66;44.83;99857.56;1774705;80;21079;-92
2022/04/25 10:05:46;;;;;;;3.12;1.50;;;;;;;18.65;44.82;99861.45;1778011;80;22201;-92
2022/04/25 10:08:15;;;;;;;2.47;1.60;;;;;;;18.65;44.85;99866.95;1777593;80;21410;-92
2022/04/25 10:10:57;;;;;;;4.03;1.75;;;;;;;18.65;44.84;99867.77;1777896;80;21365;-92
2022/04/25 10:13:20;;;;;;;2.98;2.00;;;;;;;18.66;44.85;99856.19;1758821;80;21436;-92
2022/04/25 10:15:46;;;;;;;2.87;2.40;;;;;;;18.66;44.86;99854.81;1778156;80;21113;-92
2022/04/25 10:18:13;;;;;;;3.52;1.90;;;;;;;18.66;44.85;99853.44;1777954;79;20814;-93
2022/04/25 10:20:41;;;;;;;2.45;1.60;;;;;;;18.67;44.86;99856.44;1777393;79;20940;-92
2022/04/25 10:23:10;;;;;;;2.08;1.60;;;;;;;18.67;44.86;99856.44;1776994;80;21505;-92
2022/04/25 10:25:42;;;;;;;2.72;1.80;;;;;;;18.67;44.87;99850.92;1778038;80;21512;-92
2022/04/25 10:28:15;;;;;;;2.25;1.65;;;;;;;18.67;44.85;99839.91;1777255;80;20988;-92
2022/04/25 10:30:46;;;;;;;3.95;1.98;;;;;;;18.68;44.88;99847.01;1777685;80;20991;-92
2022/04/25 10:33:20;;;;;;;2.17;1.70;;;;;;;18.67;44.88;99837.93;1777693;80;20928;-92
2022/04/25 10:35:51;;;;;;;2.42;1.55;;;;;;;18.68;44.87;99835.98;1778052;80;20881;-91
2022/04/25 10:38:48;;;;;;;3.20;1.80;;;;;;;18.67;44.86;99833.80;1777669;80;21302;-92
2022/04/25 10:44:20;;;;;;;3.10;1.72;;;;;;;18.67;44.85;99828.88;1775333;80;20971;-92
2022/04/25 10:47:07;;;;;;;2.30;1.62;;;;;;;18.68;44.85;99827.72;1769150;80;20948;-92
2022/04/25 10:49:38;;;;;;;4.20;1.80;;;;;;;18.68;44.89;99831.29;1771930;80;20933;-92
2022/04/25 10:52:08;;;;;;;2.67;1.87;;;;;;;18.67;44.87;99825.53;1777815;80;21263;-92
2022/04/25 10:54:48;;;;;;;3.35;1.75;;;;;;;18.67;44.91;99824.16;1775046;80;21838;-92
2022/04/25 10:57:14;;;;;;;3.45;1.98;;;;;;;18.67;44.92;99824.75;1777578;80;20952;-92
2022/04/25 10:59:41;;;;;;;3.00;1.70;;;;;;;18.68;44.93;99831.86;1777905;80;20924;-92
2022/04/25 11:02:27;;;;;;;3.65;1.55;;;;;;;18.67;44.94;99837.93;1777940;80;20968;-92
2022/04/25 11:05:14;;;;;;;3.37;1.90;;;;;;;18.68;44.98;99840.94;1777412;80;20960;-92
2022/04/25 11:07:41;;;;;;;3.58;1.80;;;;;;;18.69;44.98;99840.37;1753941;80;21063;-92
2022/04/25 11:10:09;;;;;;;2.85;1.92;;;;;;;18.68;44.99;99837.37;1777471;80;21365;-92
2022/04/25 11:12:59;;;;;;;3.33;1.98;;;;;;;18.68;45.02;99830.48;1778070;79;20948;-92
2022/04/25 11:15:46;;;;;;;2.42;1.67;;;;;;;18.68;45.04;99832.67;1777677;80;20933;-92
2022/04/25 11:18:41;;;;;;;2.83;1.60;;;;;;;18.69;45.03;99828.78;1774857;80;20921;-91
2022/04/25 11:21:19;;;;;;;3.20;1.70;;;;;;;18.69;45.04;99830.16;1777486;80;21142;-92
2022/04/25 11:23:48;;;;;;;3.25;1.95;;;;;;;18.68;45.04;99835.98;1770900;79;20849;-92
2022/04/25 11:26:26;;;;;;;3.25;1.80;;;;;;;18.69;45.06;99832.11;1772486;80;20885;-91
2022/04/25 11:29:08;;;;;;;2.72;1.90;;;;;;;18.69;45.07;99838.42;1772834;80;20917;-92
2022/04/25 11:31:32;;;;;;;5.55;1.95;;;;;;;18.69;45.08;99840.37;1771990;80;20902;-92
2022/04/25 11:34:01;;;;;;;2.35;1.80;;;;;;;18.70;45.10;99835.11;1772669;79;21259;-92
2022/04/25 11:36:29;;;;;;;2.05;1.50;;;;;;;18.69;45.07;99843.94;1772386;80;21000;-92
2022/04/25 11:41:40;;;;;;;3.37;2.05;;;;;;;18.70;45.12;99833.73;1772479;80;20898;-91
2022/04/25 11:44:07;;;;;;;2.50;1.80;;;;;;;18.70;45.10;99837.86;1772449;80;20850;-91
2022/04/25 11:46:39;;;;;;;2.87;2.00;;;;;;;18.71;45.10;99833.98;1772424;80;21218;-92
2022/04/25 11:49:06;;;;;;;2.47;1.72;;;;;;;18.73;45.12;99835.01;1772383;80;21329;-92
2022/04/25 11:51:39;;;;;;;2.33;1.50;;;;;;;18.73;45.12;99841.90;1772465;79;20956;-92
2022/04/25 11:54:09;;;;;;;2.45;1.70;;;;;;;18.71;45.10;99836.14;1772409;81;20850;-92
2022/04/25 11:56:37;;;;;;;4.97;2.00;;;;;;;18.74;45.09;99839.39;1772852;80;20898;-92
2022/04/25 11:59:15;;;;;;;4.80;2.17;;;;;;;18.74;45.09;99829.18;1772398;81;21232;-92
2022/04/25 12:01:49;;;;;;;2.67;1.90;;;;;;;18.73;45.09;99820.67;1772104;80;21358;-92
2022/04/25 12:04:27;;;;;;;2.85;1.85;;;;;;;18.74;45.11;99825.05;1772531;80;20877;-92
2022/04/25 12:07:05;;;;;;;2.55;1.65;;;;;;;18.75;45.09;99823.10;1772050;80;20937;-92
2022/04/25 12:15:43;;;;;;;4.12;1.77;;;;;;;18.75;45.06;99828.05;1772059;80;20893;-91
2022/04/25 12:18:21;;;;;;;2.85;1.70;;;;;;;18.75;45.06;99821.16;1771899;80;20991;-91
2022/04/25 12:21:11;;;;;;;4.50;1.70;;;;;;;18.74;45.08;99819.53;1772200;80;20890;-92